Time;durP1;ratioP1;P1;durP2;ratioP2;P2;SDS_P1;SDS_P2;PMS_P1;PMS_P2;Temp;Humidity;BMP_temperature;BMP_pressure;BME280_temperature;BME280_humidity;BME280_pressure;Samples;Min_cycle;Max_cycle;Signal;HPM_P1;HPM_P2
2022/11/17 00:02:02;;;;;;;;;;;;;;;6.94;100.00;96473.72;5122649;28;19958;-58
2022/11/17 00:04:29;;;;;;;;;;;;;;;6.98;100.00;96473.97;5129898;28;19923;-58
2022/11/17 00:06:56;;;;;;;;;;;;;;;6.95;100.00;96474.53;5122078;28;19923;-59
2022/11/17 00:09:22;;;;;;;;;;;;;;;6.94;100.00;96478.22;5121516;28;19934;-59
2022/11/17 00:14:35;;;;;;;;;;;;;;;6.96;100.00;96468.94;5119499;28;19970;-59
2022/11/17 00:17:02;;;;;;;;;;;;;;;6.96;100.00;96465.50;5122241;28;20011;-58
2022/11/17 00:22:14;;;;;;;;;;;;;;;6.94;100.00;96463.09;5118623;28;19928;-58
2022/11/17 00:24:40;;;;;;;;;;;;;;;6.91;100.00;96468.97;5112009;28;19977;-59
2022/11/17 00:27:06;;;;;;;;;;;;;;;6.89;100.00;96470.31;5122055;28;19931;-58
2022/11/17 00:29:33;;;;;;;;;;;;;;;6.92;100.00;96459.94;5121113;28;19924;-59
2022/11/17 00:34:45;;;;;;;;;;;;;;;6.89;100.00;96457.03;5121055;28;20409;-59
2022/11/17 00:37:12;;;;;;;;;;;;;;;6.90;100.00;96463.94;5121869;28;19949;-59
2022/11/17 00:39:38;;;;;;;;;;;;;;;6.89;100.00;96457.84;5120086;28;19991;-59
2022/11/17 00:42:04;;;;;;;;;;;;;;;6.93;100.00;96460.75;5118212;28;19924;-59
2022/11/17 00:44:31;;;;;;;;;;;;;;;6.92;100.00;96465.25;5118942;28;19962;-59
2022/11/17 00:46:57;;;;;;;;;;;;;;;6.92;100.00;96457.28;5121803;28;19947;-58
2022/11/17 00:49:25;;;;;;;;;;;;;;;6.93;100.00;96455.44;5121674;28;19934;-58
2022/11/17 00:51:53;;;;;;;;;;;;;;;6.95;100.00;96453.28;5117541;28;19950;-59
2022/11/17 00:54:20;;;;;;;;;;;;;;;6.89;100.00;96441.13;5109714;28;19992;-58
2022/11/17 00:56:46;;;;;;;;;;;;;;;6.95;100.00;96453.28;5121091;28;19928;-59
2022/11/17 00:59:13;;;;;;;;;;;;;;;6.91;100.00;96449.59;5121564;28;19931;-58
2022/11/17 01:01:39;;;;;;;;;;;;;;;6.89;100.00;96454.38;5119874;28;19987;-59
2022/11/17 01:04:06;;;;;;;;;;;;;;;6.90;100.00;96450.69;5118097;28;20011;-59
2022/11/17 01:06:33;;;;;;;;;;;;;;;6.91;100.00;96453.03;5119009;28;20555;-60
2022/11/17 01:09:01;;;;;;;;;;;;;;;6.94;100.00;96447.19;5121757;28;20003;-60
2022/11/17 01:11:28;;;;;;;;;;;;;;;6.93;100.00;96450.13;5121517;28;19934;-60
2022/11/17 01:13:55;;;;;;;;;;;;;;;6.82;100.00;96453.91;5118236;28;19970;-60
2022/11/17 01:16:22;;;;;;;;;;;;;;;6.75;100.00;96456.03;5118094;28;20002;-58
2022/11/17 01:18:49;;;;;;;;;;;;;;;6.73;100.00;96453.69;5121046;28;19966;-59
2022/11/17 01:21:17;;;;;;;;;;;;;;;6.71;100.00;96441.75;5121571;28;19930;-59
2022/11/17 01:23:44;;;;;;;;;;;;;;;6.71;100.00;96442.56;5110896;28;19983;-58
2022/11/17 01:26:12;;;;;;;;;;;;;;;6.75;100.00;96453.38;5117919;28;19984;-59
2022/11/17 01:28:39;;;;;;;;;;;;;;;6.86;100.00;96441.69;5119567;28;19963;-58
2022/11/17 01:31:06;;;;;;;;;;;;;;;6.96;100.00;96446.94;5121573;28;20038;-60
2022/11/17 01:33:33;;;;;;;;;;;;;;;6.95;100.00;96448.78;5120709;28;19954;-59
2022/11/17 01:36:00;;;;;;;;;;;;;;;7.01;100.00;96441.56;5117859;28;20005;-59
2022/11/17 01:38:27;;;;;;;;;;;;;;;7.00;100.00;96439.97;5117537;28;19995;-59
2022/11/17 01:40:53;;;;;;;;;;;;;;;6.96;100.00;96428.34;5121322;28;19979;-59
2022/11/17 01:47:00;;;;;;;;;;;;;;;7.01;100.00;96423.00;5122690;27;20048;-60
2022/11/17 01:49:27;;;;;;;;;;;;;;;6.97;100.00;96416.66;5115177;28;19987;-59
2022/11/17 01:51:57;;;;;;;;;;;;;;;6.96;100.00;96409.78;5115338;28;19980;-59
2022/11/17 01:54:26;;;;;;;;;;;;;;;7.02;100.00;96411.31;5106691;28;19952;-60
2022/11/17 01:56:56;;;;;;;;;;;;;;;7.03;100.00;96419.00;5115413;28;19960;-59
2022/11/17 01:59:25;;;;;;;;;;;;;;;6.97;100.00;96414.00;5115638;28;20027;-60
2022/11/17 02:01:55;;;;;;;;;;;;;;;7.03;100.00;96402.28;5118978;28;19924;-60
2022/11/17 02:04:24;;;;;;;;;;;;;;;7.05;100.00;96400.94;5118543;28;19994;-59
2022/11/17 02:06:52;;;;;;;;;;;;;;;7.08;100.00;96404.91;5115095;28;19980;-59
2022/11/17 02:09:19;;;;;;;;;;;;;;;6.99;100.00;96401.25;5114986;28;19932;-59
2022/11/17 02:11:45;;;;;;;;;;;;;;;6.97;100.00;96398.88;5117602;28;19924;-60
2022/11/17 02:14:12;;;;;;;;;;;;;;;6.97;100.00;96388.25;5118364;28;20006;-59
2022/11/17 02:16:38;;;;;;;;;;;;;;;6.98;100.00;96394.34;5116538;28;19924;-60
2022/11/17 02:19:04;;;;;;;;;;;;;;;6.92;100.00;96396.25;5114919;28;19995;-59
2022/11/17 02:22:00;;;;;;;;;;;;;;;6.96;100.00;96396.50;5115423;28;19984;-59
2022/11/17 02:24:41;;;;;;;;;;;;;;;6.92;100.00;96401.56;5106235;28;19925;-59
2022/11/17 02:27:30;;;;;;;;;;;;;;;6.95;100.00;96394.91;5101150;28;19991;-59
2022/11/17 02:30:01;;;;;;;;;;;;;;;6.95;100.00;96392.25;5114615;28;19924;-61
2022/11/17 02:32:30;;;;;;;;;;;;;;;6.98;100.00;96395.16;5114619;28;20000;-60
2022/11/17 02:35:04;;;;;;;;;;;;;;;6.98;100.00;96392.50;5117927;28;19924;-59
2022/11/17 02:37:32;;;;;;;;;;;;;;;6.96;100.00;96391.19;5117260;28;19936;-60
2022/11/17 02:40:01;;;;;;;;;;;;;;;6.95;100.00;96373.69;5114243;28;19925;-60
2022/11/17 02:45:17;;;;;;;;;;;;;;;7.01;100.00;96380.53;5123433;27;19959;-60
2022/11/17 02:47:46;;;;;;;;;;;;;;;6.98;100.00;96367.81;5117499;28;19924;-59
2022/11/17 02:50:13;;;;;;;;;;;;;;;7.01;100.00;96364.59;5134620;27;19984;-59
2022/11/17 02:52:39;;;;;;;;;;;;;;;7.09;100.00;96363.22;5134447;27;20015;-59
2022/11/17 02:55:06;;;;;;;;;;;;;;;7.11;100.00;96355.78;5131374;28;19958;-59
2022/11/17 02:57:35;;;;;;;;;;;;;;;7.09;100.00;96357.94;5127896;28;19966;-59
2022/11/17 03:00:03;;;;;;;;;;;;;;;7.11;100.00;96345.97;5120771;28;19928;-60
2022/11/17 03:02:39;;;;;;;;;;;;;;;7.06;100.00;96346.78;5121163;28;19956;-60
2022/11/17 03:05:10;;;;;;;;;;;;;;;7.09;100.00;96348.06;5124056;28;19991;-59
2022/11/17 03:07:45;;;;;;;;;;;;;;;7.10;100.00;96347.00;5122644;28;20004;-59
2022/11/17 03:10:13;;;;;;;;;;;;;;;7.12;100.00;96339.56;5120650;28;20509;-59
2022/11/17 03:12:43;;;;;;;;;;;;;;;7.10;100.00;96339.06;5122275;28;20024;-59
2022/11/17 03:15:13;;;;;;;;;;;;;;;7.12;100.00;96334.25;5123808;28;19971;-60
2022/11/17 03:17:44;;;;;;;;;;;;;;;7.09;100.00;96326.06;5122226;28;20022;-60
2022/11/17 03:20:13;;;;;;;;;;;;;;;6.97;100.00;96327.22;5120457;28;19955;-60
2022/11/17 03:22:43;;;;;;;;;;;;;;;6.98;100.00;96325.34;5120246;28;19987;-60
2022/11/17 03:25:11;;;;;;;;;;;;;;;6.93;100.00;96323.53;5117597;28;19924;-59
2022/11/17 03:27:40;;;;;;;;;;;;;;;6.97;100.00;96321.09;5122010;28;19991;-60
2022/11/17 03:30:09;;;;;;;;;;;;;;;6.96;100.00;96324.84;5120143;28;19924;-59
2022/11/17 03:32:36;;;;;;;;;;;;;;;7.01;100.00;96322.16;5121302;28;19991;-59
2022/11/17 03:35:04;;;;;;;;;;;;;;;7.01;100.00;96324.81;5123811;28;19987;-59
2022/11/17 03:37:33;;;;;;;;;;;;;;;6.97;100.00;96323.75;5122837;28;19919;-59
2022/11/17 03:40:01;;;;;;;;;;;;;;;6.94;100.00;96325.13;5120145;28;19959;-60
2022/11/17 03:42:29;;;;;;;;;;;;;;;6.91;100.00;96314.25;5120073;28;19948;-60
2022/11/17 03:45:01;;;;;;;;;;;;;;;6.93;100.00;96315.56;5123230;28;19979;-59
2022/11/17 03:47:31;;;;;;;;;;;;;;;6.91;100.00;96317.72;5123276;28;20060;-60
2022/11/17 03:49:59;;;;;;;;;;;;;;;6.91;100.00;96304.44;5119873;28;19935;-60
2022/11/17 03:52:28;;;;;;;;;;;;;;;6.96;100.00;96309.69;5119680;28;19951;-59
2022/11/17 03:54:54;;;;;;;;;;;;;;;7.01;100.00;96300.91;5111436;28;20073;-59
2022/11/17 03:57:26;;;;;;;;;;;;;;;6.93;100.00;96301.53;5111058;28;19924;-60
2022/11/17 03:59:55;;;;;;;;;;;;;;;6.89;100.00;96290.69;5119824;28;19959;-60
2022/11/17 04:02:22;;;;;;;;;;;;;;;6.84;100.00;96292.59;5119599;28;19932;-60
2022/11/17 04:05:08;;;;;;;;;;;;;;;6.89;100.00;96280.06;5122683;28;19996;-60
2022/11/17 04:07:35;;;;;;;;;;;;;;;6.83;100.00;96272.41;5121992;28;19947;-58
2022/11/17 04:10:02;;;;;;;;;;;;;;;6.80;100.00;96275.63;5118447;28;20000;-60
2022/11/17 04:17:56;;;;;;;;;;;;;;;6.86;100.00;96279.81;5119629;28;19967;-59
2022/11/17 04:20:24;;;;;;;;;;;;;;;6.85;100.00;96279.03;5119146;28;19955;-60
2022/11/17 04:23:05;;;;;;;;;;;;;;;6.86;100.00;96277.16;5119172;28;19931;-59
2022/11/17 04:31:00;;;;;;;;;;;;;;;6.88;100.00;96269.72;5119138;28;19924;-60
2022/11/17 04:33:26;;;;;;;;;;;;;;;6.94;100.00;96271.25;5118756;28;19959;-61
2022/11/17 04:35:54;;;;;;;;;;;;;;;6.87;100.00;96268.16;5110345;28;19931;-60
2022/11/17 04:38:20;;;;;;;;;;;;;;;6.88;100.00;96269.72;5110261;28;19970;-60
2022/11/17 04:43:27;;;;;;;;;;;;;;;6.89;100.00;96258.03;5108941;28;20606;-60
2022/11/17 04:45:57;;;;;;;;;;;;;;;6.89;100.00;96252.72;5110147;28;19963;-60
2022/11/17 04:48:24;;;;;;;;;;;;;;;6.92;100.00;96257.47;5110114;28;19928;-59
2022/11/17 04:50:54;;;;;;;;;;;;;;;6.86;100.00;96248.78;5110114;28;19924;-60
2022/11/17 04:53:20;;;;;;;;;;;;;;;6.85;100.00;96241.09;5110157;28;19991;-59
2022/11/17 04:55:47;;;;;;;;;;;;;;;6.85;100.00;96239.22;5118598;28;20313;-60
2022/11/17 04:58:13;;;;;;;;;;;;;;;6.94;100.00;96234.09;5118524;28;19946;-59
2022/11/17 05:00:39;;;;;;;;;;;;;;;6.83;100.00;96222.00;5120147;28;19959;-60
2022/11/17 05:03:06;;;;;;;;;;;;;;;6.88;100.00;96214.00;5121914;28;20559;-60
2022/11/17 05:05:32;;;;;;;;;;;;;;;6.85;100.00;96215.34;5121204;28;19927;-60
2022/11/17 05:08:00;;;;;;;;;;;;;;;6.81;100.00;96218.81;5118443;28;19924;-60
2022/11/17 05:18:36;;;;;;;;;;;;;;;6.86;100.00;96211.63;5120526;28;19924;-59
2022/11/17 05:21:02;;;;;;;;;;;;;;;6.87;100.00;96213.19;5117953;28;19995;-59
2022/11/17 05:26:14;;;;;;;;;;;;;;;6.93;100.00;96219.28;5117954;28;19988;-60
2022/11/17 05:28:40;;;;;;;;;;;;;;;6.95;100.00;96220.56;5119781;28;19991;-60
2022/11/17 05:31:07;;;;;;;;;;;;;;;6.91;100.00;96224.03;5121469;28;19975;-59
2022/11/17 05:33:33;;;;;;;;;;;;;;;6.89;100.00;96221.69;5120218;28;19998;-60
2022/11/17 05:35:59;;;;;;;;;;;;;;;6.85;100.00;96209.25;5117768;28;19920;-60
2022/11/17 05:38:26;;;;;;;;;;;;;;;6.82;100.00;96199.19;5117899;28;19940;-60
2022/11/17 05:40:53;;;;;;;;;;;;;;;6.84;100.00;96215.66;5117491;28;20027;-60
2022/11/17 05:43:20;;;;;;;;;;;;;;;6.86;100.00;96210.84;5117551;28;19924;-60
2022/11/17 05:45:46;;;;;;;;;;;;;;;6.88;100.00;96229.91;5120041;28;19991;-60
2022/11/17 05:48:13;;;;;;;;;;;;;;;6.53;100.00;96231.81;5121252;28;19923;-60
2022/11/17 05:50:39;;;;;;;;;;;;;;;6.52;100.00;96232.09;5119897;28;19988;-61
2022/11/17 05:53:05;;;;;;;;;;;;;;;6.50;100.00;96234.22;5096342;28;20003;-59
2022/11/17 05:55:32;;;;;;;;;;;;;;;6.44;100.00;96236.13;5117855;28;19924;-59
2022/11/17 05:58:03;;;;;;;;;;;;;;;6.45;100.00;96236.91;5118034;28;19968;-60
2022/11/17 06:00:30;;;;;;;;;;;;;;;6.45;100.00;96245.66;5118408;28;19975;-62
2022/11/17 06:03:00;;;;;;;;;;;;;;;6.47;100.00;96248.81;5121346;28;19924;-60
2022/11/17 06:05:27;;;;;;;;;;;;;;;6.50;100.00;96245.63;5121249;28;20388;-60
2022/11/17 06:07:56;;;;;;;;;;;;;;;6.53;100.00;96256.75;5117566;28;19924;-60
2022/11/17 06:10:23;;;;;;;;;;;;;;;6.54;100.00;96256.47;5117555;28;19920;-60
2022/11/17 06:12:49;;;;;;;;;;;;;;;6.46;100.00;96257.88;5120817;28;19955;-59
2022/11/17 06:15:17;;;;;;;;;;;;;;;6.44;100.00;96257.34;5121062;28;19975;-60
2022/11/17 06:17:47;;;;;;;;;;;;;;;6.43;100.00;96263.72;5118968;28;20002;-59
2022/11/17 06:20:15;;;;;;;;;;;;;;;6.51;100.00;96268.44;5117682;28;19924;-60
2022/11/17 06:22:41;;;;;;;;;;;;;;;6.49;100.00;96259.16;5117363;28;19996;-60
2022/11/17 06:25:08;;;;;;;;;;;;;;;6.45;100.00;96263.44;5114543;28;19963;-59
2022/11/17 06:27:35;;;;;;;;;;;;;;;6.37;100.00;96262.19;5119619;28;19924;-59
2022/11/17 06:30:02;;;;;;;;;;;;;;;6.40;100.00;96266.94;5117278;28;19938;-59
2022/11/17 06:32:31;;;;;;;;;;;;;;;6.31;100.00;96254.53;5119090;28;19927;-59
2022/11/17 06:34:57;;;;;;;;;;;;;;;6.44;100.00;96267.16;5124707;28;19970;-59
2022/11/17 06:37:24;;;;;;;;;;;;;;;6.30;100.00;96251.09;5124542;28;19934;-60
2022/11/17 06:39:50;;;;;;;;;;;;;;;6.42;100.00;96279.91;5121290;28;19991;-59
2022/11/17 06:42:17;;;;;;;;;;;;;;;6.49;100.00;96269.78;5121217;28;20256;-60
2022/11/17 06:44:44;;;;;;;;;;;;;;;6.45;100.00;96260.78;5123013;28;19995;-60
2022/11/17 06:47:10;;;;;;;;;;;;;;;6.53;100.00;96284.84;5124482;28;19993;-60
2022/11/17 06:49:38;;;;;;;;;;;;;;;6.33;100.00;96271.75;5123173;28;19967;-59
2022/11/17 06:52:04;;;;;;;;;;;;;;;6.35;100.00;96292.66;5120739;28;19983;-60
2022/11/17 06:54:31;;;;;;;;;;;;;;;6.44;100.00;96281.19;5113041;28;19924;-59
2022/11/17 06:56:57;;;;;;;;;;;;;;;6.35;100.00;96279.41;5124543;28;19924;-60
2022/11/17 06:59:23;;;;;;;;;;;;;;;6.43;100.00;96287.59;5124312;28;19974;-61
2022/11/17 07:01:49;;;;;;;;;;;;;;;6.39;100.00;96277.78;5121281;28;20608;-59
2022/11/17 07:04:16;;;;;;;;;;;;;;;6.39;100.00;96285.75;5120578;28;20007;-59
2022/11/17 07:06:43;;;;;;;;;;;;;;;6.40;100.00;96287.34;5122695;28;19946;-60
2022/11/17 07:09:10;;;;;;;;;;;;;;;6.33;100.00;96269.09;5124365;28;19987;-59
2022/11/17 07:11:36;;;;;;;;;;;;;;;6.31;100.00;96268.56;5123005;28;19987;-60
2022/11/17 07:14:02;;;;;;;;;;;;;;;6.30;100.00;96272.28;5120667;28;19978;-59
2022/11/17 07:16:29;;;;;;;;;;;;;;;6.31;100.00;96273.84;5120875;28;19947;-59
2022/11/17 07:18:58;;;;;;;;;;;;;;;6.33;100.00;96270.94;5124140;28;19970;-59
2022/11/17 07:21:24;;;;;;;;;;;;;;;6.34;100.00;96272.53;5124008;28;20067;-59
2022/11/17 07:23:51;;;;;;;;;;;;;;;6.31;100.00;96275.75;5112381;28;19966;-60
2022/11/17 07:26:18;;;;;;;;;;;;;;;6.28;100.00;96278.94;5120155;28;19984;-59
2022/11/17 07:28:44;;;;;;;;;;;;;;;6.29;100.00;96269.91;5122727;28;20468;-59
2022/11/17 07:31:10;;;;;;;;;;;;;;;6.32;100.00;96264.84;5123775;28;20016;-59
2022/11/17 07:33:37;;;;;;;;;;;;;;;6.27;100.00;96256.94;5122428;28;19934;-60
2022/11/17 07:36:04;;;;;;;;;;;;;;;6.32;100.00;96256.88;5120157;28;19980;-59
2022/11/17 07:38:31;;;;;;;;;;;;;;;6.36;100.00;96265.88;5120764;28;20296;-58
2022/11/17 07:40:59;;;;;;;;;;;;;;;6.40;100.00;96266.94;5123682;28;19924;-59
2022/11/17 07:43:25;;;;;;;;;;;;;;;6.42;100.00;96259.47;5123359;28;19928;-59
2022/11/17 07:45:51;;;;;;;;;;;;;;;6.42;100.00;96275.38;5120319;28;19928;-59
2022/11/17 07:48:17;;;;;;;;;;;;;;;6.47;100.00;96280.66;5119695;28;19920;-59
2022/11/17 07:50:44;;;;;;;;;;;;;;;6.51;100.00;96286.19;5121899;28;19959;-59
2022/11/17 07:53:10;;;;;;;;;;;;;;;6.47;100.00;96285.94;5117204;28;19924;-60
2022/11/17 07:55:36;;;;;;;;;;;;;;;6.51;100.00;96287.00;5119685;28;20018;-60
2022/11/17 07:58:04;;;;;;;;;;;;;;;6.53;100.00;96293.88;5119824;28;19959;-59
2022/11/17 08:00:32;;;;;;;;;;;;;;;6.57;100.00;96313.47;5120501;28;20369;-59
2022/11/17 08:03:00;;;;;;;;;;;;;;;6.60;100.00;96312.91;5123448;28;20027;-59
2022/11/17 08:05:29;;;;;;;;;;;;;;;6.56;100.00;96309.25;5123192;28;19931;-59
2022/11/17 08:07:56;;;;;;;;;;;;;;;6.60;100.00;96297.00;5111182;28;20530;-59
2022/11/17 08:10:22;;;;;;;;;;;;;;;6.66;100.00;96295.88;5111348;28;20007;-60
2022/11/17 08:12:50;;;;;;;;;;;;;;;6.66;100.00;96285.28;5111052;28;19975;-59
2022/11/17 08:15:18;;;;;;;;;;;;;;;6.67;100.00;96287.66;5101559;28;19924;-60
2022/11/17 08:17:44;;;;;;;;;;;;;;;6.69;100.00;96290.03;5111277;28;20094;-60
2022/11/17 08:20:12;;;;;;;;;;;;;;;6.66;100.00;96277.31;5117276;28;19942;-59
2022/11/17 08:22:38;;;;;;;;;;;;;;;6.78;100.00;96293.66;5117984;28;19928;-59
2022/11/17 08:25:05;;;;;;;;;;;;;;;6.76;100.00;96277.25;5116146;28;19928;-60
2022/11/17 08:27:33;;;;;;;;;;;;;;;6.68;100.00;96277.84;5103558;28;19924;-59
2022/11/17 08:30:00;;;;;;;;;;;;;;;6.73;100.00;96275.94;5119101;28;19963;-59
2022/11/17 08:32:28;;;;;;;;;;;;;;;6.74;100.00;96280.19;5118771;28;19950;-60
2022/11/17 08:34:55;;;;;;;;;;;;;;;6.72;100.00;96276.22;5118808;28;19924;-60
2022/11/17 08:37:21;;;;;;;;;;;;;;;6.71;100.00;96283.41;5118622;28;19991;-60
2022/11/17 08:39:47;;;;;;;;;;;;;;;6.68;100.00;96286.59;5121362;28;19973;-60
2022/11/17 08:42:15;;;;;;;;;;;;;;;6.73;100.00;96283.09;5103919;28;19991;-59
2022/11/17 08:44:41;;;;;;;;;;;;;;;6.73;100.00;96280.47;5120073;28;19956;-60
2022/11/17 08:47:08;;;;;;;;;;;;;;;6.73;100.00;96285.75;5118252;28;19924;-60
2022/11/17 08:49:35;;;;;;;;;;;;;;;6.75;100.00;96278.31;5119680;28;19934;-60
2022/11/17 08:52:02;;;;;;;;;;;;;;;6.79;100.00;96280.13;5122279;28;19982;-59
2022/11/17 08:54:28;;;;;;;;;;;;;;;6.84;100.00;96281.97;5112844;28;20010;-60
2022/11/17 08:56:56;;;;;;;;;;;;;;;6.84;100.00;96290.69;5121755;28;19979;-59
2022/11/17 08:59:22;;;;;;;;;;;;;;;6.92;100.00;96294.63;5121976;28;19926;-60
2022/11/17 09:01:49;;;;;;;;;;;;;;;6.89;100.00;96295.97;5118752;28;20023;-60
2022/11/17 09:04:15;;;;;;;;;;;;;;;6.88;100.00;96296.25;5118363;28;19931;-60
2022/11/17 09:06:43;;;;;;;;;;;;;;;6.90;100.00;96294.13;5120409;28;19992;-60
2022/11/17 09:09:09;;;;;;;;;;;;;;;6.92;100.00;96291.97;5121808;28;19983;-60
2022/11/17 09:11:35;;;;;;;;;;;;;;;7.00;100.00;96294.00;5120643;28;19982;-59
2022/11/17 09:14:02;;;;;;;;;;;;;;;6.97;100.00;96287.41;5118261;28;19983;-60
2022/11/17 09:16:28;;;;;;;;;;;;;;;6.99;100.00;96289.78;5118401;28;19950;-61
2022/11/17 09:18:57;;;;;;;;;;;;;;;7.06;100.00;96306.16;5121867;28;19983;-60
2022/11/17 09:21:23;;;;;;;;;;;;;;;7.08;100.00;96301.38;5121771;28;19926;-60
2022/11/17 09:23:51;;;;;;;;;;;;;;;7.04;100.00;96297.69;5109941;28;20007;-59
2022/11/17 09:26:17;;;;;;;;;;;;;;;7.06;100.00;96290.25;5118340;28;19931;-60
2022/11/17 09:28:44;;;;;;;;;;;;;;;7.14;100.00;96284.34;5120172;28;20027;-59
2022/11/17 09:31:11;;;;;;;;;;;;;;;7.15;100.00;96277.94;5121459;28;19970;-59
2022/11/17 09:33:38;;;;;;;;;;;;;;;7.13;100.00;96268.69;5120260;28;19988;-61
2022/11/17 09:36:06;;;;;;;;;;;;;;;7.17;100.00;96261.75;5118153;28;19991;-60
2022/11/17 09:38:32;;;;;;;;;;;;;;;7.16;100.00;96270.78;5118594;28;19928;-59
2022/11/17 09:41:00;;;;;;;;;;;;;;;7.19;100.00;96273.66;5121598;28;19983;-60
2022/11/17 09:43:28;;;;;;;;;;;;;;;7.23;100.00;96266.72;5121553;28;20411;-60
2022/11/17 09:45:59;;;;;;;;;;;;;;;7.22;100.00;96257.19;5117997;28;20038;-59
2022/11/17 09:48:30;;;;;;;;;;;;;;;7.27;100.00;96248.38;5117658;28;19928;-59
2022/11/17 09:50:58;;;;;;;;;;;;;;;7.31;100.00;96260.00;5117995;28;19979;-59
2022/11/17 09:53:26;;;;;;;;;;;;;;;7.33;100.00;96271.94;5114282;28;19983;-59
2022/11/17 09:55:55;;;;;;;;;;;;;;;7.30;100.00;96285.00;5117822;28;19923;-59
2022/11/17 09:58:29;;;;;;;;;;;;;;;7.31;100.00;96287.34;5117855;28;19963;-60
2022/11/17 10:00:56;;;;;;;;;;;;;;;7.34;100.00;96270.84;5117836;28;19991;-60
2022/11/17 10:03:25;;;;;;;;;;;;;;;7.43;100.00;96273.69;5117854;28;19935;-59
2022/11/17 10:05:52;;;;;;;;;;;;;;;7.40;100.00;96263.63;5121168;28;19979;-59
2022/11/17 10:08:20;;;;;;;;;;;;;;;7.38;100.00;96255.94;5124268;28;19930;-60
2022/11/17 10:10:47;;;;;;;;;;;;;;;7.43;100.00;96250.56;5122687;28;19998;-59
2022/11/17 10:13:17;;;;;;;;;;;;;;;7.42;100.00;96243.69;5121783;28;20008;-60
2022/11/17 10:15:47;;;;;;;;;;;;;;;7.47;100.00;96233.00;5124007;28;19983;-60
2022/11/17 10:18:14;;;;;;;;;;;;;;;7.52;100.00;96245.44;5125222;28;19930;-59
2022/11/17 10:20:41;;;;;;;;;;;;;;;7.60;100.00;96248.25;5123364;28;19991;-60
2022/11/17 10:23:10;;;;;;;;;;;;;;;7.63;100.00;96262.03;5117969;28;19995;-59
2022/11/17 10:25:37;;;;;;;;;;;;;;;7.68;100.00;96262.75;5121569;28;19987;-60
2022/11/17 10:28:04;;;;;;;;;;;;;;;7.67;100.00;96263.06;5121620;28;20033;-61
2022/11/17 10:30:30;;;;;;;;;;;;;;;7.65;100.00;96281.13;5122094;28;19970;-60
2022/11/17 10:32:59;;;;;;;;;;;;;;;7.71;100.00;96280.00;5125066;28;19963;-60
2022/11/17 10:35:26;;;;;;;;;;;;;;;7.72;100.00;96261.13;5124758;28;19952;-60
2022/11/17 10:37:54;;;;;;;;;;;;;;;7.53;100.00;96287.66;5121492;28;19975;-59
2022/11/17 10:40:21;;;;;;;;;;;;;;;7.69;100.00;96293.59;5121386;28;19978;-59
2022/11/17 10:42:54;;;;;;;;;;;;;;;7.79;100.00;96290.81;5124145;28;20662;-60
2022/11/17 10:45:20;;;;;;;;;;;;;;;7.82;100.00;96284.94;5124657;28;19987;-60
2022/11/17 10:47:47;;;;;;;;;;;;;;;7.87;100.00;96276.88;5122089;28;19965;-60
2022/11/17 10:50:23;;;;;;;;;;;;;;;7.86;100.00;96269.97;5121313;28;19963;-60
2022/11/17 10:52:50;;;;;;;;;;;;;;;7.88;100.00;96273.16;5121134;28;19920;-59
2022/11/17 10:55:18;;;;;;;;;;;;;;;8.00;100.00;96272.72;5094472;28;19959;-60
2022/11/17 10:57:47;;;;;;;;;;;;;;;7.99;100.00;96274.59;5123498;28;19994;-60
2022/11/17 11:00:22;;;;;;;;;;;;;;;7.95;100.00;96260.28;5124608;28;19987;-60
2022/11/17 11:02:48;;;;;;;;;;;;;;;7.91;100.00;96269.13;5121553;28;19971;-59
2022/11/17 11:05:15;;;;;;;;;;;;;;;8.00;100.00;96273.53;5120839;28;19920;-60
2022/11/17 11:07:43;;;;;;;;;;;;;;;8.05;100.00;96273.44;5122719;28;20000;-59
2022/11/17 11:10:14;;;;;;;;;;;;;;;8.02;100.00;96270.56;5124395;28;19963;-59
2022/11/17 11:12:44;;;;;;;;;;;;;;;8.10;100.00;96262.78;5122635;28;19987;-60
2022/11/17 11:15:15;;;;;;;;;;;;;;;8.17;100.00;96280.22;5120684;28;19979;-60
2022/11/17 11:17:41;;;;;;;;;;;;;;;8.16;100.00;96271.47;5122127;28;19924;-59
2022/11/17 11:20:12;;;;;;;;;;;;;;;8.17;100.00;96262.38;5124190;28;19995;-61
2022/11/17 11:22:43;;;;;;;;;;;;;;;8.24;100.00;96240.75;5118784;28;20412;-59
2022/11/17 11:25:26;;;;;;;;;;;;;;;8.21;100.00;96222.72;5117751;28;19987;-60
2022/11/17 11:28:00;;;;;;;;;;;;;;;8.31;100.00;96242.03;5120356;28;19955;-60
2022/11/17 11:30:26;;;;;;;;;;;;;;;8.33;100.00;96239.84;5120467;28;19991;-60
2022/11/17 11:33:01;;;;;;;;;;;;;;;8.40;100.00;96234.97;5123758;28;19923;-59
2022/11/17 11:35:33;;;;;;;;;;;;;;;8.51;100.00;96240.94;5123716;28;19935;-60
2022/11/17 11:38:02;;;;;;;;;;;;;;;8.47;100.00;96230.06;5120242;28;19924;-60
2022/11/17 11:40:31;;;;;;;;;;;;;;;8.49;100.00;96219.13;5120413;28;20333;-59
2022/11/17 11:42:58;;;;;;;;;;;;;;;8.42;100.00;96214.19;5124100;28;19987;-60
2022/11/17 11:45:41;;;;;;;;;;;;;;;8.51;100.00;96212.44;5123899;28;19923;-59
2022/11/17 11:48:16;;;;;;;;;;;;;;;8.53;100.00;96207.63;5120021;28;19995;-60
2022/11/17 11:50:48;;;;;;;;;;;;;;;8.60;100.00;96208.03;5122135;28;19991;-60
2022/11/17 11:53:17;;;;;;;;;;;;;;;8.53;100.00;96204.97;5116882;28;19924;-60
2022/11/17 11:55:47;;;;;;;;;;;;;;;8.54;100.00;96214.50;5119889;28;19931;-60
2022/11/17 11:58:17;;;;;;;;;;;;;;;8.59;100.00;96206.47;5120011;28;19995;-60
2022/11/17 12:00:44;;;;;;;;;;;;;;;8.65;100.00;96199.97;5121759;28;19931;-60
2022/11/17 12:03:15;;;;;;;;;;;;;;;8.56;100.00;96207.06;5123505;28;19991;-60
2022/11/17 12:05:49;;;;;;;;;;;;;;;8.47;100.00;96206.13;5121427;28;19924;-60
2022/11/17 12:08:20;;;;;;;;;;;;;;;8.49;100.00;96217.28;5119463;28;19978;-60
2022/11/17 12:10:50;;;;;;;;;;;;;;;8.55;100.00;96210.78;5122247;28;19928;-59
2022/11/17 12:13:18;;;;;;;;;;;;;;;8.54;100.00;96211.84;5123317;28;19928;-61
2022/11/17 12:15:44;;;;;;;;;;;;;;;8.56;100.00;96203.59;5120930;28;20367;-61
2022/11/17 12:18:12;;;;;;;;;;;;;;;8.54;100.00;96187.16;5119497;28;19924;-61
2022/11/17 12:20:54;;;;;;;;;;;;;;;8.56;100.00;96199.06;5121026;28;19934;-61
2022/11/17 12:23:26;;;;;;;;;;;;;;;8.58;100.00;96194.25;5115477;28;19967;-60
2022/11/17 12:25:55;;;;;;;;;;;;;;;8.61;100.00;96212.28;5119422;28;19967;-60
2022/11/17 12:28:33;;;;;;;;;;;;;;;8.62;100.00;96205.88;5118999;28;19928;-61
2022/11/17 12:31:01;;;;;;;;;;;;;;;8.50;100.00;96210.88;5109903;28;19950;-60
2022/11/17 12:33:46;;;;;;;;;;;;;;;8.65;100.00;96220.47;5110696;28;19935;-60
2022/11/17 12:36:21;;;;;;;;;;;;;;;8.68;100.00;96210.03;5110681;28;19983;-61
2022/11/17 12:38:47;;;;;;;;;;;;;;;8.65;100.00;96202.63;5126323;28;19991;-60
2022/11/17 12:41:15;;;;;;;;;;;;;;;8.64;100.00;96202.91;5116891;28;19983;-60
2022/11/17 12:43:41;;;;;;;;;;;;;;;8.60;100.00;96202.72;5120594;28;20011;-60
2022/11/17 12:46:16;;;;;;;;;;;;;;;8.64;100.00;96197.59;5100566;28;19936;-60
2022/11/17 12:48:46;;;;;;;;;;;;;;;8.62;100.00;96197.91;5120798;28;19947;-59
2022/11/17 12:51:21;;;;;;;;;;;;;;;8.65;100.00;96197.31;5122170;28;19987;-59
2022/11/17 12:53:53;;;;;;;;;;;;;;;8.59;100.00;96198.50;5110907;28;19930;-60
2022/11/17 12:56:53;;;;;;;;;;;;;;;8.72;100.00;96198.81;5118881;28;19924;-60
2022/11/17 12:59:34;;;;;;;;;;;;;;;8.76;100.00;96203.25;5118570;28;20007;-61
2022/11/17 13:02:10;;;;;;;;;;;;;;;8.85;100.00;96209.47;5105220;28;19952;-60
2022/11/17 13:04:40;;;;;;;;;;;;;;;8.88;100.00;96218.78;5110434;28;19931;-60
2022/11/17 13:07:07;;;;;;;;;;;;;;;8.98;100.00;96216.69;5110047;28;19984;-61
2022/11/17 13:09:35;;;;;;;;;;;;;;;9.01;100.00;96202.00;5110089;28;20312;-60
2022/11/17 13:12:03;;;;;;;;;;;;;;;8.97;100.00;96211.69;5110347;28;20516;-60
2022/11/17 13:14:29;;;;;;;;;;;;;;;9.00;100.00;96214.56;5110201;28;19935;-59
2022/11/17 13:16:56;;;;;;;;;;;;;;;8.93;100.00;96216.00;5110232;28;20001;-59
2022/11/17 13:19:34;;;;;;;;;;;;;;;8.97;100.00;96214.34;5109710;28;19924;-60
2022/11/17 13:22:02;;;;;;;;;;;;;;;8.87;100.00;96212.66;5118265;28;19938;-59
2022/11/17 13:24:30;;;;;;;;;;;;;;;8.92;100.00;96219.75;5118081;28;19928;-60
2022/11/17 13:26:57;;;;;;;;;;;;;;;8.95;100.00;96211.97;5117968;28;20023;-60
2022/11/17 13:29:24;;;;;;;;;;;;;;;9.02;100.00;96214.25;5118102;28;20030;-60
2022/11/17 13:31:50;;;;;;;;;;;;;;;9.02;100.00;96215.03;5121223;28;19924;-59
2022/11/17 13:34:17;;;;;;;;;;;;;;;9.02;100.00;96219.56;5121546;28;19927;-60